createdAt,value
2022-08-16T00:01:18.620Z,100259.09
2022-08-16T00:03:48.121Z,100271.34
2022-08-16T00:06:17.021Z,100275.53
2022-08-16T00:08:45.817Z,100285.81
2022-08-16T00:11:16.766Z,100291.94
2022-08-16T00:13:53.645Z,100298.91
2022-08-16T00:17:05.923Z,100292.94
2022-08-16T00:19:15.608Z,100299.50
2022-08-16T00:21:45.020Z,100283.25
2022-08-16T00:24:30.847Z,100264.63
2022-08-16T00:27:00.717Z,100252.84
2022-08-16T00:29:29.500Z,100241.03
2022-08-16T00:32:05.443Z,100244.94
2022-08-16T00:34:44.607Z,100233.19
2022-08-16T00:37:24.308Z,100216.91
2022-08-16T00:39:58.491Z,100219.03
2022-08-16T00:42:31.411Z,100206.38
2022-08-16T00:45:08.727Z,100212.78
2022-08-16T00:47:49.333Z,100204.19
2022-08-16T00:50:21.532Z,100208.63
2022-08-16T00:53:04.987Z,100213.09
2022-08-16T00:55:37.541Z,100212.78
2022-08-16T00:58:12.879Z,100232.16
2022-08-16T01:00:45.611Z,100243.41
2022-08-16T01:03:30.343Z,100248.44
2022-08-16T01:06:40.038Z,100271.25
2022-08-16T01:08:52.871Z,100274.63
2022-08-16T01:11:23.718Z,100284.06
2022-08-16T01:13:54.525Z,100292.69
2022-08-16T01:28:30.914Z,100332.19
2022-08-16T01:31:01.007Z,100317.44
2022-08-16T01:33:33.387Z,100314.13
2022-08-16T01:36:11.606Z,100304.66
2022-08-16T01:38:49.254Z,100303.81
2022-08-16T01:41:26.652Z,100292.38
2022-08-16T01:44:00.982Z,100287.22
2022-08-16T01:46:39.731Z,100281.25
2022-08-16T01:49:11.472Z,100281.56
2022-08-16T01:51:43.579Z,100268.78
2022-08-16T01:54:13.289Z,100263.75
2022-08-16T01:56:43.515Z,100271.84
2022-08-16T01:59:15.915Z,100278.13
2022-08-16T02:01:49.923Z,100270.47
2022-08-16T02:04:48.616Z,100260.19
2022-08-16T02:07:11.344Z,100263.97
2022-08-16T02:09:40.375Z,100263.13
2022-08-16T02:12:43.583Z,100269.53
2022-08-16T02:14:59.505Z,100263.41
2022-08-16T02:17:30.682Z,100254.13
2022-08-16T02:20:00.620Z,100256.09
2022-08-16T02:22:34.993Z,100253.75
2022-08-16T02:25:10.076Z,100241.66
2022-08-16T02:27:38.545Z,100242.50
2022-08-16T02:30:12.265Z,100235.53
2022-08-16T02:33:03.138Z,100238.16
2022-08-16T02:35:31.887Z,100235.53
2022-08-16T02:38:01.694Z,100241.66
2022-08-16T02:40:37.489Z,100232.88
2022-08-16T02:43:05.966Z,100241.09
2022-08-16T02:45:34.405Z,100224.84
2022-08-16T02:48:29.849Z,100213.88
2022-08-16T02:51:05.957Z,100218.63
2022-08-16T02:53:37.736Z,100214.47
2022-08-16T02:56:09.924Z,100213.78
2022-08-16T02:58:38.952Z,100213.09
2022-08-16T03:01:08.078Z,100206.28
2022-08-16T03:04:39.762Z,100190.03
2022-08-16T03:06:41.623Z,100188.53
2022-08-16T03:09:13.829Z,100187.00
2022-08-16T03:11:45.648Z,100187.28
2022-08-16T03:14:14.041Z,100190.09
2022-08-16T03:16:59.256Z,100190.09
2022-08-16T03:19:42.211Z,100189.41
2022-08-16T03:22:18.951Z,100192.88
2022-08-16T03:24:57.901Z,100190.38
2022-08-16T03:27:31.250Z,100188.72
2022-08-16T03:30:01.981Z,100188.03
2022-08-16T03:32:30.097Z,100189.84
2022-08-16T03:34:59.479Z,100193.47
2022-08-16T03:37:27.585Z,100194.28
2022-08-16T03:40:02.690Z,100202.22
2022-08-16T03:42:31.176Z,100204.88
2022-08-16T03:45:03.274Z,100206.69
2022-08-16T03:47:34.243Z,100213.50
2022-08-16T03:50:25.774Z,100213.63
2022-08-16T03:52:59.641Z,100226.72
2022-08-16T03:55:45.397Z,100217.13
2022-08-16T03:58:13.994Z,100226.00
2022-08-16T04:00:42.305Z,100226.00
2022-08-16T04:03:10.291Z,100226.84
2022-08-16T04:05:44.058Z,100233.13
2022-08-16T04:08:23.001Z,100243.53
2022-08-16T04:10:53.664Z,100253.28
2022-08-16T04:14:01.189Z,100258.56
2022-08-16T04:16:26.575Z,100272.63
2022-08-16T04:19:02.688Z,100278.59
2022-08-16T04:21:35.208Z,100281.94
2022-08-16T04:24:07.811Z,100292.53
2022-08-16T04:26:36.306Z,100291.69
2022-08-16T04:29:18.280Z,100298.91
2022-08-16T04:31:55.634Z,100292.81
2022-08-16T04:34:26.931Z,100303.50
2022-08-16T04:36:57.737Z,100301.97
2022-08-16T04:39:36.508Z,100301.97
2022-08-16T04:42:12.970Z,100303.94
2022-08-16T04:44:54.369Z,100309.22
2022-08-16T04:47:33.221Z,100320.66
2022-08-16T04:50:04.600Z,100329.09
2022-08-16T04:52:35.966Z,100345.69
2022-08-16T04:55:16.718Z,100349.00
2022-08-16T04:57:45.874Z,100359.56
2022-08-16T05:00:32.786Z,100351.66
2022-08-16T05:03:07.372Z,100359.41
2022-08-16T05:05:45.084Z,100355.81
2022-08-16T05:08:28.060Z,100351.38
2022-08-16T05:11:00.284Z,100363.59
2022-08-16T05:13:40.391Z,100372.06
2022-08-16T05:16:20.333Z,100381.53
2022-08-16T05:18:51.253Z,100389.34
2022-08-16T05:21:20.759Z,100407.53
2022-08-16T05:23:58.690Z,100403.91
2022-08-16T05:26:31.776Z,100410.88
2022-08-16T05:29:04.598Z,100423.84
2022-08-16T05:31:33.196Z,100417.25
2022-08-16T05:34:04.608Z,100433.13
2022-08-16T05:36:33.961Z,100442.59
2022-08-16T05:39:08.743Z,100447.75
2022-08-16T05:41:45.036Z,100452.88
2022-08-16T05:44:22.839Z,100451.91
2022-08-16T05:46:54.820Z,100451.75
2022-08-16T05:49:23.524Z,100451.63
2022-08-16T05:51:51.514Z,100448.00
2022-08-16T05:54:25.519Z,100456.66
2022-08-16T05:56:54.634Z,100466.38
2022-08-16T05:59:24.389Z,100471.69
2022-08-16T06:01:55.228Z,100478.09
2022-08-16T06:04:36.691Z,100473.50
2022-08-16T06:07:08.984Z,100485.75
2022-08-16T06:09:44.527Z,100492.69
2022-08-16T06:12:26.743Z,100474.16
2022-08-16T06:14:59.336Z,100480.31
2022-08-16T06:17:42.465Z,100487.28
2022-08-16T06:20:14.533Z,100493.38
2022-08-16T06:22:47.661Z,100482.66
2022-08-16T06:25:36.320Z,100484.19
2022-08-16T06:28:09.475Z,100487.50
2022-08-16T06:30:44.115Z,100494.22
2022-08-16T06:33:22.326Z,100516.47
2022-08-16T06:35:55.033Z,100527.44
2022-08-16T06:38:32.531Z,100535.94
2022-08-16T06:41:05.507Z,100535.09
2022-08-16T06:43:35.092Z,100546.38
2022-08-16T06:46:05.437Z,100550.41
2022-08-16T06:48:34.071Z,100554.47
2022-08-16T06:51:03.652Z,100564.50
2022-08-16T06:53:33.546Z,100569.91
2022-08-16T06:56:14.270Z,100578.81
2022-08-16T06:58:47.768Z,100582.41
2022-08-16T07:01:20.217Z,100611.94
2022-08-16T07:03:54.922Z,100600.91
2022-08-16T07:06:26.506Z,100581.13
2022-08-16T07:08:55.999Z,100586.97
2022-08-16T07:11:47.791Z,100570.91
2022-08-16T07:14:24.703Z,100570.63
2022-08-16T07:16:58.375Z,100571.19
2022-08-16T07:20:01.495Z,100562.94
2022-08-16T07:22:39.177Z,100582.84
2022-08-16T07:25:07.731Z,100577.53
2022-08-16T07:27:37.678Z,100573.53
2022-08-16T07:30:38.393Z,100559.88
2022-08-16T07:32:56.832Z,100553.88
2022-08-16T07:35:25.771Z,100548.88
2022-08-16T07:37:54.329Z,100538.56
2022-08-16T07:40:49.208Z,100547.50
2022-08-16T07:43:12.356Z,100561.28
2022-08-16T07:45:42.918Z,100567.97
2022-08-16T07:48:12.415Z,100562.22
2022-08-16T07:50:57.103Z,100566.41
2022-08-16T07:53:28.965Z,100559.16
2022-08-16T07:55:57.556Z,100568.47
2022-08-16T07:58:35.253Z,100580.59
2022-08-16T08:01:10.525Z,100576.97
2022-08-16T08:03:48.259Z,100575.28
2022-08-16T08:06:16.876Z,100571.97
2022-08-16T08:08:50.385Z,100568.34
2022-08-16T08:11:24.052Z,100561.06
2022-08-16T08:14:03.911Z,100571.38
2022-08-16T08:16:35.666Z,100610.84
2022-08-16T08:19:04.834Z,100593.56
2022-08-16T08:21:58.395Z,100590.44
2022-08-16T08:24:31.618Z,100590.00
2022-08-16T08:27:02.100Z,100583.56
2022-08-16T08:29:36.769Z,100580.06
2022-08-16T08:32:51.167Z,100577.97
2022-08-16T08:34:56.032Z,100575.19
2022-08-16T08:37:33.428Z,100588.94
2022-08-16T08:40:19.478Z,100577.22
2022-08-16T08:42:57.876Z,100584.03
2022-08-16T08:45:53.226Z,100589.75
2022-08-16T08:48:34.454Z,100601.25
2022-08-16T08:51:08.681Z,100617.97
2022-08-16T08:53:37.844Z,100628.50
2022-08-16T08:56:23.074Z,100636.69
2022-08-16T08:58:59.987Z,100651.03
2022-08-16T09:01:36.557Z,100645.41
2022-08-16T09:04:14.362Z,100644.84
2022-08-16T09:06:45.502Z,100650.38
2022-08-16T09:09:16.803Z,100660.38
2022-08-16T09:11:49.584Z,100666.78
2022-08-16T09:14:24.080Z,100675.25
2022-08-16T09:17:01.716Z,100674.81
2022-08-16T09:19:37.141Z,100684.31
2022-08-16T09:22:20.678Z,100701.44
2022-08-16T09:24:52.344Z,100723.59
2022-08-16T09:27:23.465Z,100736.41
2022-08-16T09:29:59.913Z,100748.41
2022-08-16T09:32:31.056Z,100757.06
2022-08-16T09:35:00.171Z,100762.09
2022-08-16T09:37:29.647Z,100780.34
2022-08-16T09:39:59.479Z,100795.00
2022-08-16T09:42:28.176Z,100794.03
2022-08-16T09:45:09.560Z,100800.03
2022-08-16T09:47:57.224Z,100805.03
2022-08-16T09:50:38.207Z,100817.88
2022-08-16T09:53:15.108Z,100829.56
2022-08-16T09:55:49.622Z,100842.25
2022-08-16T09:58:40.702Z,100855.94
2022-08-16T10:01:12.948Z,100867.78
2022-08-16T10:04:02.752Z,100886.47
2022-08-16T10:06:33.697Z,100894.97
2022-08-16T10:09:05.644Z,100908.50
2022-08-16T10:11:52.611Z,100918.69
2022-08-16T10:14:24.337Z,100919.34
2022-08-16T10:17:00.014Z,100912.22
2022-08-16T10:19:32.363Z,100925.88
2022-08-16T10:22:05.298Z,100929.94
2022-08-16T10:24:33.790Z,100928.91
2022-08-16T10:27:25.177Z,100937.75
2022-08-16T10:32:35.314Z,100931.56
2022-08-16T10:35:05.669Z,100923.91
2022-08-16T10:37:36.471Z,100924.06
2022-08-16T10:40:29.652Z,100913.59
2022-08-16T10:42:56.134Z,100908.56
2022-08-16T10:45:25.073Z,100870.88
2022-08-16T10:48:02.640Z,100844.84
2022-08-16T10:50:33.719Z,100838.16
2022-08-16T10:53:07.531Z,100839.16
2022-08-16T10:55:40.979Z,100846.31
2022-08-16T10:58:17.078Z,100855.13
2022-08-16T11:00:46.511Z,100868.91
2022-08-16T11:06:07.557Z,100833.38
2022-08-16T11:08:45.292Z,100785.53
2022-08-16T11:11:19.646Z,100765.63
2022-08-16T11:14:11.367Z,100754.94
2022-08-16T11:19:25.833Z,100692.13
2022-08-16T11:22:39.381Z,100646.38
2022-08-16T11:24:46.541Z,100620.41
2022-08-16T11:27:35.908Z,100594.53
2022-08-16T11:30:09.180Z,100585.13
2022-08-16T11:32:40.991Z,100597.00
2022-08-16T11:35:13.662Z,100596.31
2022-08-16T11:40:38.797Z,100616.97
2022-08-16T11:43:09.955Z,100629.44
2022-08-16T11:45:38.516Z,100623.41
2022-08-16T11:48:07.326Z,100665.84
2022-08-16T11:50:36.101Z,100686.09
2022-08-16T11:53:08.291Z,100684.13
2022-08-16T11:55:38.473Z,100725.41
2022-08-16T11:58:08.588Z,100800.38
2022-08-16T12:00:50.374Z,100792.25
2022-08-16T12:03:20.450Z,100811.28
2022-08-16T12:06:02.385Z,100800.94
2022-08-16T12:08:32.781Z,100798.44
2022-08-16T12:11:02.289Z,100803.19
2022-08-16T12:13:30.872Z,100791.34
2022-08-16T12:15:58.994Z,100771.56
2022-08-16T12:18:26.988Z,100734.13
2022-08-16T12:20:55.394Z,100652.78
2022-08-16T12:23:26.435Z,100596.59
2022-08-16T12:25:57.892Z,100518.53
2022-08-16T12:28:54.249Z,100457.91
2022-08-16T12:31:15.712Z,100423.00
2022-08-16T12:33:45.133Z,100400.75
2022-08-16T12:36:14.402Z,100384.91
2022-08-16T12:38:48.318Z,100351.53
2022-08-16T12:41:24.302Z,100331.94
2022-08-16T12:43:57.209Z,100331.09
2022-08-16T12:46:30.988Z,100316.53
2022-08-16T12:48:58.980Z,100358.22
2022-08-16T12:51:57.654Z,100394.59
2022-08-16T12:54:20.280Z,100444.38
2022-08-16T12:56:50.318Z,100499.56
2022-08-16T12:59:20.356Z,100528.78
2022-08-16T13:01:50.298Z,100611.66
2022-08-16T13:04:20.979Z,100584.44
2022-08-16T13:06:53.005Z,100577.63
2022-08-16T13:09:26.533Z,100627.28
2022-08-16T13:12:03.408Z,100670.84
2022-08-16T13:14:34.291Z,100709.53
2022-08-16T13:17:06.885Z,100760.59
2022-08-16T13:20:05.597Z,100830.72
2022-08-16T13:22:25.476Z,100926.25
2022-08-16T13:24:54.324Z,101068.38
2022-08-16T13:28:01.427Z,101178.69
2022-08-16T13:30:35.628Z,101245.03
2022-08-16T13:33:01.432Z,101314.97
2022-08-16T13:35:42.914Z,101380.16
2022-08-16T13:38:21.615Z,101442.34
2022-08-16T13:40:55.982Z,101442.69
2022-08-16T13:43:27.076Z,101477.72
2022-08-16T13:45:56.203Z,101424.66
2022-08-16T13:48:25.139Z,101457.63
2022-08-16T13:50:54.073Z,101507.56
2022-08-16T13:53:24.532Z,101533.66
2022-08-16T13:55:58.748Z,101506.84
2022-08-16T13:58:37.432Z,101518.78
2022-08-16T14:01:18.713Z,101460.91
2022-08-16T14:03:47.946Z,101575.00
2022-08-16T14:06:18.873Z,101450.78
2022-08-16T14:08:58.946Z,101211.31
2022-08-16T14:11:34.078Z,101052.31
2022-08-16T14:14:05.485Z,100978.06
2022-08-16T14:16:34.835Z,100945.03
2022-08-16T14:19:03.289Z,100866.84
2022-08-16T14:21:35.359Z,100949.06
2022-08-16T14:24:12.841Z,100847.66
2022-08-16T14:26:53.508Z,100785.38
2022-08-16T14:29:23.010Z,100833.16
2022-08-16T14:31:53.527Z,100886.69
2022-08-16T14:34:25.753Z,100966.09
2022-08-16T14:36:57.617Z,101022.16
2022-08-16T14:39:28.220Z,100993.31
2022-08-16T14:41:56.964Z,100932.09
2022-08-16T14:44:27.042Z,100884.28
2022-08-16T14:46:56.314Z,100918.84
2022-08-16T14:49:25.067Z,100917.78
2022-08-16T14:51:53.282Z,100935.25
2022-08-16T14:54:22.046Z,100951.53
2022-08-16T14:56:56.917Z,100964.28
2022-08-16T14:59:27.364Z,100986.53
2022-08-16T15:02:00.682Z,101021.97
2022-08-16T15:04:39.506Z,101058.28
2022-08-16T15:07:12.543Z,101083.53
2022-08-16T15:09:44.178Z,101125.22
2022-08-16T15:12:31.290Z,101149.13
2022-08-16T15:15:12.465Z,101196.72
2022-08-16T15:17:56.024Z,101211.34
2022-08-16T15:20:26.866Z,101222.66
2022-08-16T15:22:57.469Z,101234.41
2022-08-16T15:25:29.625Z,101254.84
2022-08-16T15:27:58.288Z,101272.72
2022-08-16T15:30:58.308Z,101289.66
2022-08-16T15:33:19.598Z,101301.44
2022-08-16T15:35:50.265Z,101333.94
2022-08-16T15:38:55.292Z,101369.03
2022-08-16T15:41:07.375Z,101400.41
2022-08-16T15:43:40.001Z,101421.31
2022-08-16T15:46:35.663Z,101418.44
2022-08-16T15:49:14.753Z,101461.84
2022-08-16T15:51:45.428Z,101518.44
2022-08-16T15:54:21.642Z,101525.09
2022-08-16T15:57:09.650Z,101512.44
2022-08-16T15:59:49.293Z,101509.44
2022-08-16T16:02:29.252Z,101542.63
2022-08-16T16:05:01.805Z,101558.47
2022-08-16T16:07:32.067Z,101557.66
2022-08-16T16:10:03.023Z,101565.47
2022-08-16T16:12:51.307Z,101623.41
2022-08-16T16:15:22.639Z,101581.78
2022-08-16T16:17:53.164Z,101587.78
2022-08-16T16:20:24.446Z,101626.06
2022-08-16T16:22:57.809Z,101661.16
2022-08-16T16:25:26.574Z,101668.88
2022-08-16T16:27:55.447Z,101653.97
2022-08-16T16:30:43.047Z,101652.16
2022-08-16T16:33:21.118Z,101650.16
2022-08-16T16:35:55.417Z,101658.09
2022-08-16T16:38:30.845Z,101649.22
2022-08-16T16:40:59.946Z,101652.97
2022-08-16T16:43:30.327Z,101656.97
2022-08-16T16:46:00.604Z,101666.03
2022-08-16T16:48:34.749Z,101670.88
2022-08-16T16:51:09.358Z,101653.78
2022-08-16T16:53:55.932Z,101628.31
2022-08-16T16:56:31.155Z,101596.78
2022-08-16T16:59:01.779Z,101571.41
2022-08-16T17:01:41.348Z,101531.22
2022-08-16T17:04:31.609Z,101525.94
2022-08-16T17:07:01.448Z,101498.84
2022-08-16T17:09:29.793Z,101457.13
2022-08-16T17:11:58.225Z,101425.97
2022-08-16T17:14:33.292Z,101398.28
2022-08-16T17:17:06.700Z,101373.91
2022-08-16T17:19:41.242Z,101374.84
2022-08-16T17:22:14.405Z,101360.06
2022-08-16T17:24:45.141Z,101340.09
2022-08-16T17:27:18.076Z,101327.25
2022-08-16T17:29:47.553Z,101322.19
2022-08-16T17:32:34.148Z,101303.88
2022-08-16T17:35:18.227Z,101279.84
2022-08-16T17:38:04.832Z,101269.41
2022-08-16T17:40:47.050Z,101261.69
2022-08-16T17:43:27.403Z,101260.13
2022-08-16T17:45:55.913Z,101265.53
2022-08-16T17:48:24.033Z,101270.94
2022-08-16T17:50:54.558Z,101273.59
2022-08-16T17:53:23.238Z,101277.41
2022-08-16T17:55:51.674Z,101271.53
2022-08-16T17:58:23.243Z,101278.72
2022-08-16T18:00:53.568Z,101305.28
2022-08-16T18:04:02.400Z,101337.94
2022-08-16T18:06:16.777Z,101361.72
2022-08-16T18:08:48.587Z,101402.31
2022-08-16T18:11:26.204Z,101438.34
2022-08-16T18:13:55.682Z,101476.19
2022-08-16T18:16:24.199Z,101501.03
2022-08-16T18:18:52.316Z,101518.91
2022-08-16T18:21:40.095Z,101544.59
2022-08-16T18:24:08.918Z,101588.78
2022-08-16T18:26:37.354Z,101630.31
2022-08-16T18:29:05.902Z,101656.09
2022-08-16T18:31:34.082Z,101696.06
2022-08-16T18:34:02.683Z,101734.19
2022-08-16T18:36:33.381Z,101767.06
2022-08-16T18:39:01.505Z,101784.91
2022-08-16T18:41:30.434Z,101794.94
2022-08-16T18:44:25.324Z,101818.78
2022-08-16T18:46:50.723Z,101824.19
2022-08-16T18:49:19.511Z,101827.22
2022-08-16T18:51:50.744Z,101848.53
2022-08-16T18:54:19.499Z,101850.44
2022-08-16T18:56:55.702Z,101858.44
2022-08-16T18:59:27.040Z,101875.34
2022-08-16T19:01:55.502Z,101873.66
2022-08-16T19:04:56.081Z,101869.44
2022-08-16T19:07:22.860Z,101883.63
2022-08-16T19:09:58.419Z,101874.22
2022-08-16T19:12:38.296Z,101881.38
2022-08-16T19:15:13.316Z,101884.22
2022-08-16T19:17:43.176Z,101867.63
2022-08-16T19:20:12.506Z,101866.88
2022-08-16T19:25:47.653Z,101887.34
2022-08-16T19:28:33.377Z,101889.31
2022-08-16T19:31:10.923Z,101898.19
2022-08-16T19:33:39.102Z,101900.94
2022-08-16T19:36:07.510Z,101910.63
2022-08-16T19:38:41.077Z,101919.47
2022-08-16T19:41:09.890Z,101925.63
2022-08-16T19:43:37.923Z,101929.22
2022-08-16T19:46:06.392Z,101934.50
2022-08-16T19:48:34.629Z,101946.72
2022-08-16T19:51:02.653Z,101933.63
2022-08-16T19:53:30.928Z,101935.53
2022-08-16T19:56:00.333Z,101939.00
2022-08-16T19:58:28.375Z,101947.94
2022-08-16T20:00:56.563Z,101935.72
2022-08-16T20:03:26.226Z,101941.00
2022-08-16T20:05:55.168Z,101937.59
2022-08-16T20:08:23.378Z,101956.84
2022-08-16T20:10:51.642Z,101962.97
2022-08-16T20:13:23.242Z,101970.78
2022-08-16T20:15:51.694Z,101970.78
2022-08-16T20:18:25.785Z,101974.25
2022-08-16T20:20:55.835Z,101983.97
2022-08-16T20:23:25.108Z,101995.25
2022-08-16T20:25:55.729Z,101999.69
2022-08-16T20:28:40.784Z,102011.09
2022-08-16T20:31:14.424Z,102022.41
2022-08-16T20:33:42.456Z,102027.69
2022-08-16T20:36:10.671Z,102032.03
2022-08-16T20:38:46.977Z,102029.38
2022-08-16T20:41:15.622Z,102038.16
2022-08-16T20:43:45.547Z,102042.59
2022-08-16T20:46:14.898Z,102049.56
2022-08-16T20:48:43.260Z,102061.81
2022-08-16T20:51:11.902Z,102063.53
2022-08-16T20:53:40.794Z,102071.34
2022-08-16T20:56:10.087Z,102083.72
2022-08-16T20:58:38.561Z,102088.97
2022-08-16T21:01:08.529Z,102091.63
2022-08-16T21:03:37.078Z,102099.44
2022-08-16T21:06:05.906Z,102109.91
2022-08-16T21:08:51.811Z,102120.38
2022-08-16T21:11:22.014Z,102122.91
2022-08-16T21:13:50.006Z,102132.53
2022-08-16T21:16:19.720Z,102140.47
2022-08-16T21:18:47.839Z,102147.44
2022-08-16T21:21:16.109Z,102143.84
2022-08-16T21:23:44.101Z,102156.97
2022-08-16T21:26:12.260Z,102163.94
2022-08-16T21:28:43.315Z,102167.44
2022-08-16T21:31:12.486Z,102167.44
2022-08-16T21:33:42.605Z,102176.19
2022-08-16T21:36:10.819Z,102173.47
2022-08-16T21:38:39.120Z,102170.91
2022-08-16T21:41:10.134Z,102173.56
2022-08-16T21:43:38.191Z,102171.78
2022-08-16T21:46:08.187Z,102177.91
2022-08-16T21:48:40.705Z,102173.47
2022-08-16T21:51:15.925Z,102181.38
2022-08-16T21:53:44.741Z,102179.59
2022-08-16T21:56:18.475Z,102177.91
2022-08-16T21:58:52.490Z,102175.28
2022-08-16T22:01:22.259Z,102178.84
2022-08-16T22:04:09.549Z,102185.06
2022-08-16T22:06:40.374Z,102177.13
2022-08-16T22:09:09.936Z,102192.97
2022-08-16T22:11:39.184Z,102192.03
2022-08-16T22:14:09.330Z,102201.75
2022-08-16T22:16:39.713Z,102208.75
2022-08-16T22:19:16.530Z,102215.69
2022-08-16T22:21:45.910Z,102211.38
2022-08-16T22:24:13.878Z,102221.94
2022-08-16T22:26:43.586Z,102229.84
2022-08-16T22:29:14.400Z,102235.13
2022-08-16T22:31:43.899Z,102229.00
2022-08-16T22:34:12.157Z,102214.09
2022-08-16T22:36:40.225Z,102215.91
2022-08-16T22:39:11.727Z,102215.06
2022-08-16T22:41:42.139Z,102230.03
2022-08-16T22:44:10.529Z,102227.41
2022-08-16T22:46:38.603Z,102223.91
2022-08-16T22:49:07.931Z,102228.31
2022-08-16T22:51:37.786Z,102224.75
2022-08-16T22:54:47.282Z,102228.31
2022-08-16T22:57:01.019Z,102221.38
2022-08-16T22:59:30.449Z,102227.56
2022-08-16T23:01:59.025Z,102226.66
2022-08-16T23:04:27.021Z,102228.44
2022-08-16T23:06:55.017Z,102237.19
2022-08-16T23:09:24.409Z,102232.00
2022-08-16T23:11:52.580Z,102228.50
2022-08-16T23:14:20.823Z,102228.50
2022-08-16T23:16:48.815Z,102232.94
2022-08-16T23:19:18.199Z,102227.69
2022-08-16T23:21:48.979Z,102226.81
2022-08-16T23:24:19.411Z,102225.03
2022-08-16T23:26:49.737Z,102232.94
2022-08-16T23:29:23.900Z,102222.47
2022-08-16T23:31:54.007Z,102224.25
2022-08-16T23:34:22.146Z,102230.38
2022-08-16T23:36:50.245Z,102224.25
2022-08-16T23:39:18.255Z,102212.00
2022-08-16T23:41:46.315Z,102213.69
2022-08-16T23:44:56.559Z,102216.25
2022-08-16T23:47:06.040Z,102206.63
2022-08-16T23:49:58.987Z,102204.75
2022-08-16T23:52:42.293Z,102202.09
2022-08-16T23:55:10.951Z,102184.56
2022-08-16T23:57:38.973Z,102177.59
